Astra — PB4187 — position and weather

sailwx.info

Track history (hours):
 
Tides and Currents Weather Stations Pressure Air Temp Water Temp Dewpoint Dewpoint Depression Visibility Wind Speed Wind Dir Waves Ship Positions

Astra

Last reported at 2014-Sep-30 04:06 UTC. Time now 2014-Oct-02 10:32 UTC.
Position N 50°50' E 006°59'.

Length 110 m.

Type: Tanker. MMSI: 244650752.

Date/timePositionNaut miles runAvg speedWind from/ knotsBaromVisibWave heightAir tempDewpointWater temp
2014-Sep-30 04:06N 50°50' E 006°59'5 2.6
2014-Sep-30 02:22N 50°55' E 006°59'12 4.0
2014-Sep-29 23:29N 51°06' E 006°52'4 4.1
2014-Sep-29 22:34N 51°09' E 006°51'2 2.5
2014-Sep-29 21:34N 51°10' E 006°48'4 4.0
2014-Sep-29 20:34N 51°13' E 006°43'2 2.1
2014-Sep-29 19:34N 51°15' E 006°44'4 4.0
2014-Sep-29 18:33N 51°19' E 006°44'35 3.7
2014-Sep-29 09:05N 51°49' E 006°16'16 4.4
2014-Sep-29 05:33N 51°51' E 005°51'6 5.9
2014-Sep-29 04:33N 51°54' E 005°42'6 5.9
2014-Sep-29 03:33N 51°54' E 005°32'5 5.3
2014-Sep-29 02:34N 51°51' E 005°25'4 4.2
2014-Sep-29 01:34N 51°49' E 005°19'6 5.8
2014-Sep-29 00:34N 51°49' E 005°09'6 6.3
2014-Sep-28 23:34N 51°49' E 004°59'7 6.9
2014-Sep-28 22:33N 51°48' E 004°48'7 7.4
2014-Sep-28 21:34N 51°43' E 004°39'9 8.0
2014-Sep-28 20:27N 51°42' E 004°25'4 4.1
2014-Sep-28 19:34N 51°39' E 004°20'7 4.8
2014-Sep-28 18:10N 51°40' E 004°10'3 5.0
2014-Sep-28 17:32N 51°38' E 004°05'6 6.6
2014-Sep-28 16:33N 51°33' E 003°59'6 5.6
2014-Sep-28 15:34N 51°27' E 004°01'6 5.9
2014-Sep-28 14:29N 51°23' E 003°53'9 9.9
2014-Sep-28 13:34N 51°27' E 003°40'2 1.6
2014-Sep-28 12:33N 51°27' E 003°43'0 0.3
2014-Sep-28 11:31N 51°27' E 003°43'0 0.0
2014-Sep-28 10:29N 51°27' E 003°43'0 0.0
2014-Sep-28 09:33N 51°27' E 003°43'0 0.0
2014-Sep-28 08:33N 51°27' E 003°43'0 0.0
2014-Sep-28 07:33N 51°27' E 003°43'0 0.0
2014-Sep-28 06:33N 51°27' E 003°43'0 0.0
2014-Sep-28 05:33N 51°27' E 003°43'0 0.3
2014-Sep-28 04:33N 51°27' E 003°43'1 1.4
2014-Sep-28 03:33N 51°28' E 003°43'0 0.0
2014-Sep-28 02:33N 51°28' E 003°43'0 0.0
2014-Sep-28 01:33N 51°28' E 003°43'0 0.0
2014-Sep-28 00:33N 51°28' E 003°43'0 0.0
2014-Sep-27 23:33N 51°28' E 003°43'0 0.0
2014-Sep-27 22:33N 51°28' E 003°43'0 0.0
2014-Sep-27 21:33N 51°28' E 003°43'0 0.0
2014-Sep-27 20:33N 51°28' E 003°43'2 2.3
2014-Sep-27 19:33N 51°26' E 003°42'1 0.6
2014-Sep-27 18:34N 51°26' E 003°41'2 1.7
2014-Sep-27 17:33N 51°25' E 003°43'7 7.0
2014-Sep-27 16:33N 51°23' E 003°53'7 6.5
2014-Sep-27 15:34N 51°27' E 004°01'5 5.3
2014-Sep-27 14:34N 51°33' E 003°59'7 7.3
2014-Sep-27 13:33N 51°39' E 004°06'4 3.4
2014-Sep-27 12:31N 51°40' E 004°11'8 8.1
2014-Sep-27 11:33N 51°41' E 004°24'3 3.3
2014-Sep-27 10:33N 51°42' E 004°29'9 9.1
2014-Sep-27 09:34N 51°44' E 004°43'9 8.8
2014-Sep-27 08:34N 51°50' E 004°54'9 8.9
2014-Sep-27 07:33N 51°49' E 005°09'9 8.7
2014-Sep-27 06:34N 51°49' E 005°23'9 9.1
2014-Sep-27 05:33N 51°54' E 005°35'10 9.9
2014-Sep-27 04:33N 51°51' E 005°51'8 7.9
2014-Sep-27 03:29N 51°52' E 006°05'1010.0
2014-Sep-27 02:30N 51°48' E 006°19'10 8.7
2014-Sep-27 01:23N 51°40' E 006°29'19 6.8
2014-Sep-26 22:32N 51°22' E 006°40'8 8.2
2014-Sep-26 21:33N 51°15' E 006°45'8 5.6
2014-Sep-26 20:07N 51°08' E 006°51'14 0.9
2014-Sep-26 03:14N 50°54' E 006°59'13 3.5
2014-Sep-25 23:30N 51°06' E 006°53'4 3.8
2014-Sep-25 22:33N 51°10' E 006°50'2 2.4
2014-Sep-25 21:33N 51°11' E 006°47'3 3.4
2014-Sep-25 20:34N 51°14' E 006°44'2 1.7
2014-Sep-25 19:33N 51°15' E 006°44'4 3.6
2014-Sep-25 18:32N 51°19' E 006°44'  
2014-Sep-23 14:20N 51°48' E 006°19'22 5.7
2014-Sep-23 10:28N 51°53' E 005°44'6 6.8
2014-Sep-23 09:33N 51°54' E 005°34'1 1.1
2014-Sep-23 08:33N 51°54' E 005°33'0 0.0
2014-Sep-23 07:32N 51°54' E 005°33'0 0.0
2014-Sep-23 06:34N 51°54' E 005°33'1 0.9
2014-Sep-23 05:33N 51°54' E 005°31'5 5.0
2014-Sep-23 04:33N 51°51' E 005°25'4 4.2
2014-Sep-23 03:34N 51°49' E 005°18'6 5.8
2014-Sep-23 02:33N 51°49' E 005°09'6 5.8
2014-Sep-23 01:33N 51°49' E 004°60'6 5.8
2014-Sep-23 00:33N 51°48' E 004°51'6 5.5
2014-Sep-22 23:33N 51°45' E 004°43'8 7.7
2014-Sep-22 22:33N 51°42' E 004°32'5 4.4
2014-Sep-22 21:29N 51°41' E 004°24'7 7.5
2014-Sep-22 20:33N 51°38' E 004°14'7 6.6
2014-Sep-22 19:33N 51°31' E 004°14'5 4.6
2014-Sep-22 18:33N 51°27' E 004°14'0 0.3
2014-Sep-22 17:33N 51°27' E 004°14'4 3.7
2014-Sep-22 16:31N 51°23' E 004°15'6 6.3
2014-Sep-22 15:34N 51°18' E 004°20'0 0.0
2014-Sep-22 14:33N 51°18' E 004°20'0 0.0
2014-Sep-22 13:33N 51°18' E 004°20'0 0.0
2014-Sep-22 12:34N 51°18' E 004°20'0 0.0
2014-Sep-22 11:33N 51°18' E 004°20'0 0.0
2014-Sep-22 10:33N 51°18' E 004°20'0 0.0
2014-Sep-22 09:33N 51°18' E 004°20'0 0.0
2014-Sep-22 08:33N 51°18' E 004°20'0 0.0
2014-Sep-22 07:33N 51°18' E 004°20'0 0.0
2014-Sep-22 06:33N 51°18' E 004°20'0 0.2
2014-Sep-22 05:32N 51°18' E 004°20'0 0.0
2014-Sep-22 04:26N 51°18' E 004°20'0 0.0
2014-Sep-22 03:12N 51°18' E 004°20'0 0.0
2014-Sep-22 02:33N 51°18' E 004°20'0 0.0
2014-Sep-22 01:29N 51°18' E 004°20'0 0.0
2014-Sep-22 00:32N 51°18' E 004°20'0 0.0
2014-Sep-21 23:30N 51°18' E 004°20'0 0.0
2014-Sep-21 22:33N 51°18' E 004°20'0 0.0
2014-Sep-21 21:33N 51°18' E 004°20'0 0.0
2014-Sep-21 20:22N 51°18' E 004°20'0 0.0
2014-Sep-21 19:33N 51°18' E 004°20'0 0.0
2014-Sep-21 15:33N 51°18' E 004°20'0 0.0
2014-Sep-21 14:33N 51°18' E 004°20'0 0.0
2014-Sep-21 13:33N 51°18' E 004°20'0 0.2
2014-Sep-21 12:28N 51°18' E 004°20'5 5.3
2014-Sep-21 11:33N 51°22' E 004°18'5 5.2
2014-Sep-21 10:32N 51°27' E 004°14'8 7.6
2014-Sep-21 09:33N 51°34' E 004°13'7 7.4
2014-Sep-21 08:33N 51°40' E 004°21'3 3.1
2014-Sep-21 07:33N 51°42' E 004°25'8 7.5
2014-Sep-21 06:33N 51°43' E 004°37'8 8.0
2014-Sep-21 05:33N 51°51' E 004°40'6 5.6
2014-Sep-21 04:33N 51°55' E 004°46'8 8.2
2014-Sep-21 03:33N 51°58' E 004°58'6 6.0
2014-Sep-21 02:33N 52°01' E 005°07'7 7.4
2014-Sep-21 01:33N 52°08' E 005°03'8 8.2
2014-Sep-21 00:33N 52°16' E 005°01'8 7.6
2014-Sep-20 23:34N 52°23' E 004°56'4 4.1
2014-Sep-20 22:33N 52°24' E 004°49'0 0.0
2014-Sep-20 21:33N 52°24' E 004°49'0 0.0
2014-Sep-20 20:33N 52°24' E 004°49'0 0.0
2014-Sep-20 19:33N 52°24' E 004°49'0 0.0
2014-Sep-20 18:33N 52°24' E 004°49'0 0.0
2014-Sep-20 17:33N 52°24' E 004°49'0 0.0
2014-Sep-20 16:33N 52°24' E 004°49'0 0.0
2014-Sep-20 15:33N 52°24' E 004°49'0 0.0
2014-Sep-20 14:33N 52°24' E 004°49'0 0.0
2014-Sep-20 13:33N 52°24' E 004°49'0 0.0
2014-Sep-20 12:33N 52°24' E 004°49'0 0.0
2014-Sep-20 11:33N 52°24' E 004°49'0 0.0
2014-Sep-20 10:33N 52°24' E 004°49'1 1.3
2014-Sep-20 09:33N 52°25' E 004°48'0 0.0
2014-Sep-20 08:33N 52°25' E 004°48'0 0.0
2014-Sep-20 07:33N 52°25' E 004°48'0 0.0
2014-Sep-20 06:33N 52°25' E 004°48'0 0.0
2014-Sep-20 05:33N 52°25' E 004°48'0 0.0
2014-Sep-20 04:33N 52°25' E 004°48'  
Track history (hours):
 
Tides and Currents Weather Stations Pressure Air Temp Water Temp Dewpoint Dewpoint Depression Visibility Wind Speed Wind Dir Waves Ship Positions

Astra

Last reported at 2014-Sep-30 04:06 UTC. Time now 2014-Oct-02 10:32 UTC.
Position N 50°50' E 006°59'.

Length 110 m.

Type: Tanker. MMSI: 244650752.

Date/timePositionNaut miles runAvg speedWind from/ knotsBaromVisibWave heightAir tempDewpointWater temp
2014-Sep-30 04:06N 50°50' E 006°59'5 2.6
2014-Sep-30 02:22N 50°55' E 006°59'12 4.0
2014-Sep-29 23:29N 51°06' E 006°52'4 4.1
2014-Sep-29 22:34N 51°09' E 006°51'2 2.5
2014-Sep-29 21:34N 51°10' E 006°48'4 4.0
2014-Sep-29 20:34N 51°13' E 006°43'2 2.1
2014-Sep-29 19:34N 51°15' E 006°44'4 4.0
2014-Sep-29 18:33N 51°19' E 006°44'35 3.7
2014-Sep-29 09:05N 51°49' E 006°16'16 4.4
2014-Sep-29 05:33N 51°51' E 005°51'6 5.9
2014-Sep-29 04:33N 51°54' E 005°42'6 5.9
2014-Sep-29 03:33N 51°54' E 005°32'5 5.3
2014-Sep-29 02:34N 51°51' E 005°25'4 4.2
2014-Sep-29 01:34N 51°49' E 005°19'6 5.8
2014-Sep-29 00:34N 51°49' E 005°09'6 6.3
2014-Sep-28 23:34N 51°49' E 004°59'7 6.9
2014-Sep-28 22:33N 51°48' E 004°48'7 7.4
2014-Sep-28 21:34N 51°43' E 004°39'9 8.0
2014-Sep-28 20:27N 51°42' E 004°25'4 4.1
2014-Sep-28 19:34N 51°39' E 004°20'7 4.8
2014-Sep-28 18:10N 51°40' E 004°10'3 5.0
2014-Sep-28 17:32N 51°38' E 004°05'6 6.6
2014-Sep-28 16:33N 51°33' E 003°59'6 5.6
2014-Sep-28 15:34N 51°27' E 004°01'6 5.9
2014-Sep-28 14:29N 51°23' E 003°53'9 9.9
2014-Sep-28 13:34N 51°27' E 003°40'2 1.6
2014-Sep-28 12:33N 51°27' E 003°43'0 0.3
2014-Sep-28 11:31N 51°27' E 003°43'0 0.0
2014-Sep-28 10:29N 51°27' E 003°43'0 0.0
2014-Sep-28 09:33N 51°27' E 003°43'0 0.0
2014-Sep-28 08:33N 51°27' E 003°43'0 0.0
2014-Sep-28 07:33N 51°27' E 003°43'0 0.0
2014-Sep-28 06:33N 51°27' E 003°43'0 0.0
2014-Sep-28 05:33N 51°27' E 003°43'0 0.3
2014-Sep-28 04:33N 51°27' E 003°43'1 1.4
2014-Sep-28 03:33N 51°28' E 003°43'0 0.0
2014-Sep-28 02:33N 51°28' E 003°43'0 0.0
2014-Sep-28 01:33N 51°28' E 003°43'0 0.0
2014-Sep-28 00:33N 51°28' E 003°43'0 0.0
2014-Sep-27 23:33N 51°28' E 003°43'0 0.0
2014-Sep-27 22:33N 51°28' E 003°43'0 0.0
2014-Sep-27 21:33N 51°28' E 003°43'0 0.0
2014-Sep-27 20:33N 51°28' E 003°43'2 2.3
2014-Sep-27 19:33N 51°26' E 003°42'1 0.6
2014-Sep-27 18:34N 51°26' E 003°41'2 1.7
2014-Sep-27 17:33N 51°25' E 003°43'7 7.0
2014-Sep-27 16:33N 51°23' E 003°53'7 6.5
2014-Sep-27 15:34N 51°27' E 004°01'5 5.3
2014-Sep-27 14:34N 51°33' E 003°59'7 7.3
2014-Sep-27 13:33N 51°39' E 004°06'4 3.4
2014-Sep-27 12:31N 51°40' E 004°11'8 8.1
2014-Sep-27 11:33N 51°41' E 004°24'3 3.3
2014-Sep-27 10:33N 51°42' E 004°29'9 9.1
2014-Sep-27 09:34N 51°44' E 004°43'9 8.8
2014-Sep-27 08:34N 51°50' E 004°54'9 8.9
2014-Sep-27 07:33N 51°49' E 005°09'9 8.7
2014-Sep-27 06:34N 51°49' E 005°23'9 9.1
2014-Sep-27 05:33N 51°54' E 005°35'10 9.9
2014-Sep-27 04:33N 51°51' E 005°51'8 7.9
2014-Sep-27 03:29N 51°52' E 006°05'1010.0
2014-Sep-27 02:30N 51°48' E 006°19'10 8.7
2014-Sep-27 01:23N 51°40' E 006°29'19 6.8
2014-Sep-26 22:32N 51°22' E 006°40'8 8.2
2014-Sep-26 21:33N 51°15' E 006°45'8 5.6
2014-Sep-26 20:07N 51°08' E 006°51'14 0.9
2014-Sep-26 03:14N 50°54' E 006°59'13 3.5
2014-Sep-25 23:30N 51°06' E 006°53'4 3.8
2014-Sep-25 22:33N 51°10' E 006°50'2 2.4
2014-Sep-25 21:33N 51°11' E 006°47'3 3.4
2014-Sep-25 20:34N 51°14' E 006°44'2 1.7
2014-Sep-25 19:33N 51°15' E 006°44'4 3.6
2014-Sep-25 18:32N 51°19' E 006°44'  
2014-Sep-23 14:20N 51°48' E 006°19'22 5.7
2014-Sep-23 10:28N 51°53' E 005°44'6 6.8
2014-Sep-23 09:33N 51°54' E 005°34'1 1.1
2014-Sep-23 08:33N 51°54' E 005°33'0 0.0
2014-Sep-23 07:32N 51°54' E 005°33'0 0.0
2014-Sep-23 06:34N 51°54' E 005°33'1 0.9
2014-Sep-23 05:33N 51°54' E 005°31'5 5.0
2014-Sep-23 04:33N 51°51' E 005°25'4 4.2
2014-Sep-23 03:34N 51°49' E 005°18'6 5.8
2014-Sep-23 02:33N 51°49' E 005°09'6 5.8
2014-Sep-23 01:33N 51°49' E 004°60'6 5.8
2014-Sep-23 00:33N 51°48' E 004°51'6 5.5
2014-Sep-22 23:33N 51°45' E 004°43'8 7.7
2014-Sep-22 22:33N 51°42' E 004°32'5 4.4
2014-Sep-22 21:29N 51°41' E 004°24'7 7.5
2014-Sep-22 20:33N 51°38' E 004°14'7 6.6
2014-Sep-22 19:33N 51°31' E 004°14'5 4.6
2014-Sep-22 18:33N 51°27' E 004°14'0 0.3
2014-Sep-22 17:33N 51°27' E 004°14'4 3.7
2014-Sep-22 16:31N 51°23' E 004°15'6 6.3
2014-Sep-22 15:34N 51°18' E 004°20'0 0.0
2014-Sep-22 14:33N 51°18' E 004°20'0 0.0
2014-Sep-22 13:33N 51°18' E 004°20'0 0.0
2014-Sep-22 12:34N 51°18' E 004°20'0 0.0
2014-Sep-22 11:33N 51°18' E 004°20'0 0.0
2014-Sep-22 10:33N 51°18' E 004°20'0 0.0
2014-Sep-22 09:33N 51°18' E 004°20'0 0.0
2014-Sep-22 08:33N 51°18' E 004°20'0 0.0
2014-Sep-22 07:33N 51°18' E 004°20'0 0.0
2014-Sep-22 06:33N 51°18' E 004°20'0 0.2
2014-Sep-22 05:32N 51°18' E 004°20'0 0.0
2014-Sep-22 04:26N 51°18' E 004°20'0 0.0
2014-Sep-22 03:12N 51°18' E 004°20'0 0.0
2014-Sep-22 02:33N 51°18' E 004°20'0 0.0
2014-Sep-22 01:29N 51°18' E 004°20'0 0.0
2014-Sep-22 00:32N 51°18' E 004°20'0 0.0
2014-Sep-21 23:30N 51°18' E 004°20'0 0.0
2014-Sep-21 22:33N 51°18' E 004°20'0 0.0
2014-Sep-21 21:33N 51°18' E 004°20'0 0.0
2014-Sep-21 20:22N 51°18' E 004°20'0 0.0
2014-Sep-21 19:33N 51°18' E 004°20'0 0.0
2014-Sep-21 15:33N 51°18' E 004°20'0 0.0
2014-Sep-21 14:33N 51°18' E 004°20'0 0.0
2014-Sep-21 13:33N 51°18' E 004°20'0 0.2
2014-Sep-21 12:28N 51°18' E 004°20'5 5.3
2014-Sep-21 11:33N 51°22' E 004°18'5 5.2
2014-Sep-21 10:32N 51°27' E 004°14'8 7.6
2014-Sep-21 09:33N 51°34' E 004°13'7 7.4
2014-Sep-21 08:33N 51°40' E 004°21'3 3.1
2014-Sep-21 07:33N 51°42' E 004°25'8 7.5
2014-Sep-21 06:33N 51°43' E 004°37'8 8.0
2014-Sep-21 05:33N 51°51' E 004°40'6 5.6
2014-Sep-21 04:33N 51°55' E 004°46'8 8.2
2014-Sep-21 03:33N 51°58' E 004°58'6 6.0
2014-Sep-21 02:33N 52°01' E 005°07'7 7.4
2014-Sep-21 01:33N 52°08' E 005°03'8 8.2
2014-Sep-21 00:33N 52°16' E 005°01'8 7.6
2014-Sep-20 23:34N 52°23' E 004°56'4 4.1
2014-Sep-20 22:33N 52°24' E 004°49'0 0.0
2014-Sep-20 21:33N 52°24' E 004°49'0 0.0
2014-Sep-20 20:33N 52°24' E 004°49'0 0.0
2014-Sep-20 19:33N 52°24' E 004°49'0 0.0
2014-Sep-20 18:33N 52°24' E 004°49'0 0.0
2014-Sep-20 17:33N 52°24' E 004°49'0 0.0
2014-Sep-20 16:33N 52°24' E 004°49'0 0.0
2014-Sep-20 15:33N 52°24' E 004°49'0 0.0
2014-Sep-20 14:33N 52°24' E 004°49'0 0.0
2014-Sep-20 13:33N 52°24' E 004°49'0 0.0
2014-Sep-20 12:33N 52°24' E 004°49'0 0.0
2014-Sep-20 11:33N 52°24' E 004°49'0 0.0
2014-Sep-20 10:33N 52°24' E 004°49'1 1.3
2014-Sep-20 09:33N 52°25' E 004°48'0 0.0
2014-Sep-20 08:33N 52°25' E 004°48'0 0.0
2014-Sep-20 07:33N 52°25' E 004°48'0 0.0
2014-Sep-20 06:33N 52°25' E 004°48'0 0.0
2014-Sep-20 05:33N 52°25' E 004°48'0 0.0
2014-Sep-20 04:33N 52°25' E 004°48'  

Dump ship's entire track history